Terminal Aerodrome Forecast
Issued by NWS Charleston, WV

Home | Current Version | Previous Version | Text Only | Print | Product List | Glossary On
Versions: 1 2 3 4 5 6 7 8 9 10 11 12 13 14 15 16 17 18 19 20 21 22 23 24 25 26
000
FTUS41 KRLX 080255 AAA
TAFBKW
TAF AMD
KBKW 080255Z 0803/0824 24006KT P6SM BKN060
     FM080400 24006KT 6SM SHRA BKN030
     FM081500 24007KT 5SM SHRA VCTS OVC018CB
     FM082100 26008KT 6SM BR VCTS BKN020CB=

USA.gov is the U.S. government's official web portal to all federal, state and local government web resources and services.